Time;durP1;ratioP1;P1;durP2;ratioP2;P2;SDS_P1;SDS_P2;PMS_P1;PMS_P2;Temp;Humidity;BMP_temperature;BMP_pressure;BME280_temperature;BME280_humidity;BME280_pressure;Samples;Min_cycle;Max_cycle;Signal;HPM_P1;HPM_P2
2021/05/22 00:01:07;;;;;;;;;;;;;;;7.33;100.00;93448.66;5069183;28;19935;-85
2021/05/22 00:03:33;;;;;;;;;;;;;;;7.33;100.00;93453.00;5069174;28;20346;-84
2021/05/22 00:05:59;;;;;;;;;;;;;;;7.30;100.00;93445.69;5069570;28;20301;-85
2021/05/22 00:08:25;;;;;;;;;;;;;;;7.25;100.00;93443.69;5069177;28;20015;-84
2021/05/22 00:10:51;;;;;;;;;;;;;;;7.20;100.00;93443.44;5069227;28;20299;-83
2021/05/22 00:13:18;;;;;;;;;;;;;;;7.21;100.00;93442.47;5069460;28;19925;-83
2021/05/22 00:15:44;;;;;;;;;;;;;;;7.18;100.00;93438.50;5069629;28;19929;-85
2021/05/22 00:18:10;;;;;;;;;;;;;;;7.09;100.00;93435.28;5069228;28;19971;-84
2021/05/22 00:20:36;;;;;;;;;;;;;;;6.99;100.00;93441.66;5069669;28;19924;-84
2021/05/22 00:23:03;;;;;;;;;;;;;;;6.90;100.00;93441.78;5069412;28;19929;-85
2021/05/22 00:25:29;;;;;;;;;;;;;;;6.91;100.00;93429.81;5068747;28;19931;-85
2021/05/22 00:27:55;;;;;;;;;;;;;;;6.82;100.00;93427.34;5080788;28;19929;-86
2021/05/22 00:30:22;;;;;;;;;;;;;;;6.82;100.00;93422.25;5090685;28;19935;-82
2021/05/22 00:32:48;;;;;;;;;;;;;;;6.77;100.00;93429.66;5081617;28;20444;-83
2021/05/22 00:35:14;;;;;;;;;;;;;;;6.73;100.00;93423.34;5069995;28;19962;-83
2021/05/22 00:37:41;;;;;;;;;;;;;;;6.71;100.00;93420.16;5069245;28;19924;-83
2021/05/22 00:40:08;;;;;;;;;;;;;;;6.63;100.00;93415.94;5069388;28;19928;-84
2021/05/22 00:42:36;;;;;;;;;;;;;;;6.54;100.00;93414.50;5069460;28;20292;-83
2021/05/22 00:45:10;;;;;;;;;;;;;;;6.47;100.00;93413.63;5069420;28;19932;-83
2021/05/22 00:47:37;;;;;;;;;;;;;;;6.25;100.00;93411.81;5069483;28;19929;-83
2021/05/22 00:50:04;;;;;;;;;;;;;;;6.17;100.00;93417.00;5069474;28;19928;-83
2021/05/22 00:52:31;;;;;;;;;;;;;;;6.13;100.00;93416.56;5069481;28;19925;-83
2021/05/22 00:54:57;;;;;;;;;;;;;;;6.08;100.00;93413.75;5069133;28;19974;-82
2021/05/22 00:57:24;;;;;;;;;;;;;;;6.09;100.00;93410.25;5069362;28;19929;-83
2021/05/22 00:59:50;;;;;;;;;;;;;;;6.11;100.00;93408.28;5069220;28;19955;-83
2021/05/22 01:02:24;;;;;;;;;;;;;;;6.09;100.00;93389.84;5069485;28;19932;-83
2021/05/22 01:04:51;;;;;;;;;;;;;;;6.03;100.00;93389.75;5069479;28;19974;-83
2021/05/22 01:07:17;;;;;;;;;;;;;;;6.06;100.00;93387.63;5069509;28;19925;-83
2021/05/22 01:09:44;;;;;;;;;;;;;;;6.10;100.00;93386.31;5069553;28;20384;-83
2021/05/22 01:12:12;;;;;;;;;;;;;;;6.14;100.00;93391.84;5069468;28;19925;-83
2021/05/22 01:14:41;;;;;;;;;;;;;;;6.20;100.00;93392.91;5069334;28;19924;-82
2021/05/22 01:17:08;;;;;;;;;;;;;;;6.22;100.00;93390.97;5069341;28;20270;-83
2021/05/22 01:19:37;;;;;;;;;;;;;;;6.22;100.00;93389.22;5069086;28;19932;-83
2021/05/22 01:22:04;;;;;;;;;;;;;;;6.22;100.00;93386.66;5068948;28;19925;-81
2021/05/22 01:24:33;;;;;;;;;;;;;;;6.19;100.00;93387.00;5068727;28;20407;-83
2021/05/22 01:27:00;;;;;;;;;;;;;;;6.21;100.00;93390.16;5069584;28;19924;-82
2021/05/22 01:29:26;;;;;;;;;;;;;;;6.25;100.00;93388.06;5069202;28;19929;-82
2021/05/22 01:31:53;;;;;;;;;;;;;;;6.23;100.00;93390.00;5068886;28;20437;-82
2021/05/22 01:34:19;;;;;;;;;;;;;;;6.18;100.00;93385.44;5069449;28;20303;-82
2021/05/22 01:36:45;;;;;;;;;;;;;;;6.00;100.00;93389.13;5069379;28;19932;-81
2021/05/22 01:39:11;;;;;;;;;;;;;;;5.98;100.00;93390.25;5072894;28;19932;-82
2021/05/22 01:41:38;;;;;;;;;;;;;;;5.91;100.00;93395.25;5072916;28;20422;-83
2021/05/22 01:44:05;;;;;;;;;;;;;;;5.76;100.00;93397.81;5072983;28;19925;-83
2021/05/22 01:46:33;;;;;;;;;;;;;;;5.82;100.00;93402.22;5072869;28;19928;-82
2021/05/22 01:48:59;;;;;;;;;;;;;;;5.69;100.00;93404.59;5072459;28;19933;-83
2021/05/22 01:51:27;;;;;;;;;;;;;;;5.80;100.00;93408.44;5072772;28;20378;-83
2021/05/22 01:53:54;;;;;;;;;;;;;;;5.86;100.00;93416.19;5072665;28;19925;-83
2021/05/22 01:56:20;;;;;;;;;;;;;;;5.92;100.00;93416.47;5072697;28;19924;-83
2021/05/22 01:58:46;;;;;;;;;;;;;;;5.98;100.00;93413.22;5072096;28;20141;-83
2021/05/22 02:01:14;;;;;;;;;;;;;;;6.00;100.00;93406.16;5072312;28;20394;-83
2021/05/22 02:03:41;;;;;;;;;;;;;;;5.94;100.00;93400.03;5072147;28;19925;-83
2021/05/22 02:06:10;;;;;;;;;;;;;;;5.91;100.00;93400.34;5072013;28;19929;-83
2021/05/22 02:08:38;;;;;;;;;;;;;;;5.69;100.00;93399.47;5072144;28;20576;-82
2021/05/22 02:11:04;;;;;;;;;;;;;;;5.67;100.00;93406.50;5072216;28;19929;-83
2021/05/22 02:13:30;;;;;;;;;;;;;;;5.69;100.00;93402.03;5072323;28;19932;-84
2021/05/22 02:15:57;;;;;;;;;;;;;;;5.72;100.00;93405.03;5072285;28;19924;-83
2021/05/22 02:18:26;;;;;;;;;;;;;;;5.73;100.00;93400.69;5072246;28;19924;-85
2021/05/22 02:20:53;;;;;;;;;;;;;;;5.74;100.00;93395.44;5071883;28;19928;-83
2021/05/22 02:23:20;;;;;;;;;;;;;;;5.79;100.00;93405.09;5072115;28;19925;-83
2021/05/22 02:25:46;;;;;;;;;;;;;;;5.79;100.00;93404.31;5072004;28;20383;-83
2021/05/22 02:28:12;;;;;;;;;;;;;;;5.84;100.00;93407.13;5072251;28;19928;-83
2021/05/22 02:30:41;;;;;;;;;;;;;;;5.86;100.00;93406.00;5071872;28;19932;-83
2021/05/22 02:33:07;;;;;;;;;;;;;;;5.89;100.00;93397.97;5071773;28;19929;-83
2021/05/22 02:35:39;;;;;;;;;;;;;;;5.83;100.00;93396.13;5071848;28;20346;-83
2021/05/22 02:38:06;;;;;;;;;;;;;;;5.84;100.00;93402.81;5071907;28;20014;-82
2021/05/22 02:40:33;;;;;;;;;;;;;;;5.79;100.00;93406.88;5071424;28;19959;-82
2021/05/22 02:43:01;;;;;;;;;;;;;;;5.81;100.00;93398.06;5072026;28;19925;-82
2021/05/22 02:45:29;;;;;;;;;;;;;;;5.86;100.00;93395.78;5071734;28;19928;-82
2021/05/22 02:47:56;;;;;;;;;;;;;;;5.88;100.00;93395.63;5071105;28;19950;-81
2021/05/22 02:50:23;;;;;;;;;;;;;;;5.93;100.00;93395.88;5071661;28;19928;-83
2021/05/22 02:52:52;;;;;;;;;;;;;;;5.95;100.00;93393.94;5071622;28;19925;-80
2021/05/22 02:55:18;;;;;;;;;;;;;;;5.96;100.00;93398.06;5071745;28;20911;-80
2021/05/22 02:57:45;;;;;;;;;;;;;;;5.98;100.00;93400.47;5071501;28;20391;-81
2021/05/22 03:00:12;;;;;;;;;;;;;;;5.99;100.00;93407.13;5071693;28;19932;-81
2021/05/22 03:02:39;;;;;;;;;;;;;;;6.00;100.00;93404.41;5071353;28;20295;-81
2021/05/22 03:05:06;;;;;;;;;;;;;;;6.00;100.00;93403.59;5071283;28;20380;-81
2021/05/22 03:07:33;;;;;;;;;;;;;;;5.99;100.00;93399.47;5071032;28;20395;-81
2021/05/22 03:10:00;;;;;;;;;;;;;;;5.98;100.00;93396.13;5070932;28;19929;-83
2021/05/22 03:12:31;;;;;;;;;;;;;;;5.98;100.00;93400.47;5068456;28;19948;-82
2021/05/22 03:14:57;;;;;;;;;;;;;;;6.01;100.00;93407.75;5069331;28;19928;-82
2021/05/22 03:17:23;;;;;;;;;;;;;;;5.94;100.00;93405.13;5069479;28;20421;-82
2021/05/22 03:19:49;;;;;;;;;;;;;;;5.89;100.00;93415.81;5071203;28;20276;-83
2021/05/22 03:22:15;;;;;;;;;;;;;;;5.88;100.00;93428.78;5070791;28;19936;-82
2021/05/22 03:24:41;;;;;;;;;;;;;;;5.89;100.00;93423.47;5070936;28;20408;-82
2021/05/22 03:27:08;;;;;;;;;;;;;;;5.81;100.00;93423.56;5070878;28;19936;-83
2021/05/22 03:29:35;;;;;;;;;;;;;;;5.90;100.00;93426.81;5070971;28;19925;-83
2021/05/22 03:32:01;;;;;;;;;;;;;;;5.93;100.00;93435.88;5070741;28;19936;-83
2021/05/22 03:34:27;;;;;;;;;;;;;;;6.05;100.00;93437.06;5070789;28;20390;-83
2021/05/22 03:36:53;;;;;;;;;;;;;;;5.94;100.00;93447.66;5070231;28;19931;-83
2021/05/22 03:39:19;;;;;;;;;;;;;;;5.83;100.00;93442.03;5070779;28;19990;-84
2021/05/22 03:41:45;;;;;;;;;;;;;;;5.89;100.00;93446.41;5070301;28;19932;-83
2021/05/22 03:44:12;;;;;;;;;;;;;;;5.69;100.00;93461.44;5070276;28;19924;-81
2021/05/22 03:46:38;;;;;;;;;;;;;;;5.78;100.00;93464.69;5070286;28;19925;-82
2021/05/22 03:49:04;;;;;;;;;;;;;;;5.95;100.00;93459.44;5070290;28;19924;-82
2021/05/22 03:51:30;;;;;;;;;;;;;;;5.98;100.00;93461.66;5070400;28;19932;-83
2021/05/22 03:53:56;;;;;;;;;;;;;;;6.00;100.00;93462.25;5070577;28;19929;-82
2021/05/22 03:56:23;;;;;;;;;;;;;;;6.01;100.00;93461.28;5070441;28;19931;-83
2021/05/22 03:58:50;;;;;;;;;;;;;;;6.05;100.00;93454.09;5070232;28;19974;-83
2021/05/22 04:01:17;;;;;;;;;;;;;;;6.01;100.00;93451.88;5068876;28;20023;-83
2021/05/22 04:03:43;;;;;;;;;;;;;;;6.17;100.00;93446.81;5066884;28;19928;-82
2021/05/22 04:06:09;;;;;;;;;;;;;;;6.50;100.00;93446.44;5069608;28;19924;-83
2021/05/22 04:08:35;;;;;;;;;;;;;;;6.67;100.00;93447.03;5070136;28;19925;-83
2021/05/22 04:11:01;;;;;;;;;;;;;;;6.92;100.00;93449.25;5070009;28;20312;-83
2021/05/22 04:13:27;;;;;;;;;;;;;;;7.13;100.00;93433.16;5070028;28;19928;-82
2021/05/22 04:15:53;;;;;;;;;;;;;;;7.35;100.00;93440.81;5070224;28;19931;-82
2021/05/22 04:18:20;;;;;;;;;;;;;;;7.48;100.00;93443.50;5066393;28;19925;-83
2021/05/22 04:20:46;;;;;;;;;;;;;;;7.57;100.00;93445.91;5070009;28;19924;-83
2021/05/22 04:23:12;;;;;;;;;;;;;;;7.35;100.00;93439.06;5070442;28;19951;-83
2021/05/22 04:25:38;;;;;;;;;;;;;;;7.52;100.00;93443.09;5069285;28;20311;-83
2021/05/22 04:28:04;;;;;;;;;;;;;;;7.42;100.00;93430.66;5070097;28;19928;-83
2021/05/22 04:30:31;;;;;;;;;;;;;;;7.59;100.00;93426.06;5069968;28;20306;-85
2021/05/22 04:32:57;;;;;;;;;;;;;;;7.41;100.00;93436.75;5069626;28;19944;-84
2021/05/22 04:35:24;;;;;;;;;;;;;;;7.37;100.00;93428.66;5069858;28;19925;-83
2021/05/22 04:37:50;;;;;;;;;;;;;;;7.49;100.00;93419.50;5068810;28;19925;-83
2021/05/22 04:40:16;;;;;;;;;;;;;;;7.41;100.00;93434.19;5068808;28;19939;-83
2021/05/22 04:42:42;;;;;;;;;;;;;;;7.55;100.00;93428.19;5069796;28;19974;-82
2021/05/22 04:45:08;;;;;;;;;;;;;;;7.46;100.00;93437.75;5069757;28;19928;-81
2021/05/22 04:47:35;;;;;;;;;;;;;;;7.60;100.00;93432.75;5069739;28;19928;-82
2021/05/22 04:50:01;;;;;;;;;;;;;;;7.67;100.00;93437.91;5069832;28;19925;-85
2021/05/22 04:52:28;;;;;;;;;;;;;;;7.43;100.00;93443.25;5069524;28;20374;-82
2021/05/22 04:54:56;;;;;;;;;;;;;;;7.40;100.00;93448.72;5069613;28;20273;-82
2021/05/22 04:57:22;;;;;;;;;;;;;;;7.41;100.00;93452.84;5069430;28;19924;-84
2021/05/22 04:59:48;;;;;;;;;;;;;;;7.46;100.00;93457.44;5067890;28;20296;-83
2021/05/22 05:02:15;;;;;;;;;;;;;;;7.64;100.00;93454.41;5069714;28;19933;-83
2021/05/22 05:04:41;;;;;;;;;;;;;;;7.79;100.00;93451.78;5069595;28;19924;-83
2021/05/22 05:07:07;;;;;;;;;;;;;;;8.02;100.00;93443.84;5069517;28;19974;-83
2021/05/22 05:09:35;;;;;;;;;;;;;;;7.97;100.00;93442.84;5069230;28;19975;-83
2021/05/22 05:12:01;;;;;;;;;;;;;;;8.26;100.00;93457.19;5071870;28;20023;-83
2021/05/22 05:14:27;;;;;;;;;;;;;;;8.32;100.00;93455.63;5073131;28;20028;-83
2021/05/22 05:16:54;;;;;;;;;;;;;;;8.23;100.00;93452.44;5073423;28;19935;-81
2021/05/22 05:19:20;;;;;;;;;;;;;;;8.31;100.00;93466.84;5073632;28;19929;-82
2021/05/22 05:21:46;;;;;;;;;;;;;;;8.55;100.00;93468.19;5073462;28;19924;-83
2021/05/22 05:24:12;;;;;;;;;;;;;;;8.76;100.00;93478.50;5074172;28;20010;-82
2021/05/22 05:26:45;;;;;;;;;;;;;;;9.05;100.00;93477.41;5073129;28;19928;-87
2021/05/22 05:29:11;;;;;;;;;;;;;;;9.30;100.00;93482.00;5073784;28;19924;-83
2021/05/22 05:31:37;;;;;;;;;;;;;;;9.47;100.00;93487.56;5073832;28;19943;-83
2021/05/22 05:34:03;;;;;;;;;;;;;;;9.59;100.00;93487.75;5073988;28;20303;-83
2021/05/22 05:36:33;;;;;;;;;;;;;;;9.67;100.00;93486.00;5081260;28;19925;-84
2021/05/22 05:38:59;;;;;;;;;;;;;;;9.61;100.00;93490.94;5086452;28;19982;-84
2021/05/22 05:41:25;;;;;;;;;;;;;;;9.67;100.00;93491.13;5082086;28;19932;-84
2021/05/22 05:43:52;;;;;;;;;;;;;;;9.73;100.00;93492.91;5073818;28;20465;-84
2021/05/22 05:46:18;;;;;;;;;;;;;;;9.89;100.00;93492.50;5073088;28;19924;-82
2021/05/22 05:48:44;;;;;;;;;;;;;;;9.59;100.00;93500.56;5073291;28;19925;-85
2021/05/22 05:51:10;;;;;;;;;;;;;;;9.84;100.00;93492.31;5072275;28;19940;-85
2021/05/22 05:53:36;;;;;;;;;;;;;;;10.02;100.00;93496.03;5065626;28;19925;-85
2021/05/22 05:56:03;;;;;;;;;;;;;;;10.37;100.00;93490.66;5055449;28;20027;-88
2021/05/22 05:58:29;;;;;;;;;;;;;;;10.49;100.00;93492.63;5052833;28;19943;-86
2021/05/22 06:00:56;;;;;;;;;;;;;;;10.73;100.00;93495.53;5053025;28;20361;-85
2021/05/22 06:03:25;;;;;;;;;;;;;;;10.95;100.00;93499.41;5052915;28;19990;-85
2021/05/22 06:05:52;;;;;;;;;;;;;;;11.41;100.00;93499.38;5052279;28;19929;-87
2021/05/22 06:08:18;;;;;;;;;;;;;;;11.96;100.00;93502.34;5052344;28;19929;-85
2021/05/22 06:10:46;;;;;;;;;;;;;;;12.45;100.00;93514.63;5052179;28;19929;-85
2021/05/22 06:13:12;;;;;;;;;;;;;;;12.96;100.00;93526.38;5060372;28;19928;-83
2021/05/22 06:15:47;;;;;;;;;;;;;;;13.36;98.67;93532.84;5072077;28;19932;-83
2021/05/22 06:18:13;;;;;;;;;;;;;;;13.80;99.24;93533.69;5072076;28;19925;-86
2021/05/22 06:20:40;;;;;;;;;;;;;;;14.25;97.16;93533.16;5072575;28;19928;-85
2021/05/22 06:23:06;;;;;;;;;;;;;;;14.69;95.35;93522.47;5071960;28;19928;-87
2021/05/22 06:25:32;;;;;;;;;;;;;;;15.16;92.51;93527.78;5072075;28;20514;-83
2021/05/22 06:27:58;;;;;;;;;;;;;;;15.49;88.65;93521.94;5072156;28;20299;-86
2021/05/22 06:30:24;;;;;;;;;;;;;;;15.77;86.42;93532.50;5072442;28;19935;-86
2021/05/22 06:32:50;;;;;;;;;;;;;;;15.93;84.39;93528.41;5071843;28;19924;-85
2021/05/22 06:35:17;;;;;;;;;;;;;;;16.02;83.55;93523.59;5072123;28;19925;-85
2021/05/22 06:37:43;;;;;;;;;;;;;;;16.12;85.07;93525.56;5071594;28;19924;-85
2021/05/22 06:40:12;;;;;;;;;;;;;;;15.93;85.16;93525.81;5071848;28;19936;-84
2021/05/22 06:42:38;;;;;;;;;;;;;;;15.92;86.33;93519.00;5071872;28;19934;-84
2021/05/22 06:45:08;;;;;;;;;;;;;;;16.07;86.27;93522.88;5071853;28;19925;-84
2021/05/22 06:47:34;;;;;;;;;;;;;;;16.02;86.50;93514.00;5071546;28;20404;-85
2021/05/22 06:50:00;;;;;;;;;;;;;;;16.12;86.12;93528.16;5071596;28;19925;-83
2021/05/22 06:52:28;;;;;;;;;;;;;;;16.17;85.99;93523.03;5071703;28;19924;-84
2021/05/22 06:54:54;;;;;;;;;;;;;;;16.21;86.33;93531.13;5071293;28;19943;-84
2021/05/22 06:57:20;;;;;;;;;;;;;;;15.92;87.37;93534.53;5071514;28;19930;-86
2021/05/22 06:59:46;;;;;;;;;;;;;;;15.52;87.69;93531.06;5071394;28;19931;-84
2021/05/22 07:02:12;;;;;;;;;;;;;;;15.58;89.05;93529.31;5071498;28;20380;-84
2021/05/22 07:04:38;;;;;;;;;;;;;;;15.71;90.30;93534.22;5071235;28;19928;-83
2021/05/22 07:07:05;;;;;;;;;;;;;;;15.70;88.27;93553.34;5071310;28;19936;-83
2021/05/22 07:09:32;;;;;;;;;;;;;;;15.81;86.91;93553.53;5071304;28;20319;-84
2021/05/22 07:11:58;;;;;;;;;;;;;;;16.22;87.82;93556.81;5071112;28;19940;-84
2021/05/22 07:14:25;;;;;;;;;;;;;;;16.27;84.49;93561.28;5068075;28;20362;-85
2021/05/22 07:16:52;;;;;;;;;;;;;;;16.72;84.55;93562.19;5069626;28;19939;-85
2021/05/22 07:19:18;;;;;;;;;;;;;;;16.96;81.33;93559.38;5071090;28;19947;-86
2021/05/22 07:21:50;;;;;;;;;;;;;;;17.15;76.98;93559.91;5071052;28;19931;-86
2021/05/22 07:24:16;;;;;;;;;;;;;;;17.23;78.61;93558.69;5071157;28;20350;-86
2021/05/22 07:26:43;;;;;;;;;;;;;;;17.56;76.18;93548.38;5070820;28;19947;-84
2021/05/22 07:29:10;;;;;;;;;;;;;;;17.79;74.66;93530.94;5070652;28;19928;-86
2021/05/22 07:31:39;;;;;;;;;;;;;;;17.98;73.91;93516.53;5070950;28;19932;-84
2021/05/22 07:34:06;;;;;;;;;;;;;;;18.39;71.73;93504.88;5070573;28;19958;-86
2021/05/22 07:36:32;;;;;;;;;;;;;;;18.56;69.97;93499.50;5070672;28;19924;-84
2021/05/22 07:38:58;;;;;;;;;;;;;;;18.60;69.36;93495.38;5070813;28;19925;-84
2021/05/22 07:41:24;;;;;;;;;;;;;;;18.67;69.01;93495.94;5070808;28;19928;-84
2021/05/22 07:43:51;;;;;;;;;;;;;;;18.70;67.45;93494.63;5070580;28;19936;-84
2021/05/22 07:46:17;;;;;;;;;;;;;;;18.85;68.36;93482.75;5070564;28;19925;-83
2021/05/22 07:48:43;;;;;;;;;;;;;;;18.99;67.22;93476.03;5070656;28;20330;-86
2021/05/22 07:51:09;;;;;;;;;;;;;;;19.01;65.24;93476.53;5070167;28;19928;-85
2021/05/22 07:53:35;;;;;;;;;;;;;;;19.29;66.04;93478.97;5070441;28;20378;-85
2021/05/22 07:56:01;;;;;;;;;;;;;;;19.46;66.90;93483.97;5070179;28;20505;-85
2021/05/22 07:58:27;;;;;;;;;;;;;;;19.45;64.31;93485.03;5070173;28;19936;-85
2021/05/22 08:00:54;;;;;;;;;;;;;;;19.61;64.58;93489.22;5070591;28;20007;-83
2021/05/22 08:03:20;;;;;;;;;;;;;;;19.69;64.47;93493.13;5070264;28;20402;-84
2021/05/22 08:05:46;;;;;;;;;;;;;;;19.97;64.48;93503.31;5070172;28;20288;-83
2021/05/22 08:08:12;;;;;;;;;;;;;;;20.07;62.32;93505.94;5069996;28;19924;-83
2021/05/22 08:10:39;;;;;;;;;;;;;;;20.32;63.07;93498.34;5070433;28;19928;-83
2021/05/22 08:13:06;;;;;;;;;;;;;;;20.45;62.14;93503.00;5069872;28;19931;-84
2021/05/22 08:15:32;;;;;;;;;;;;;;;20.36;61.28;93508.00;5070039;28;19935;-84
2021/05/22 08:17:59;;;;;;;;;;;;;;;20.27;62.03;93504.38;5070153;28;19931;-83
2021/05/22 08:20:25;;;;;;;;;;;;;;;20.37;60.96;93499.13;5070082;28;19924;-84
2021/05/22 08:22:51;;;;;;;;;;;;;;;20.66;60.21;93500.38;5069671;28;19928;-85
2021/05/22 08:25:19;;;;;;;;;;;;;;;20.65;60.83;93493.59;5070006;28;19931;-84
2021/05/22 08:30:30;;;;;;;;;;;;;;;20.51;59.00;93496.72;5070355;28;19974;-85
2021/05/22 08:32:56;;;;;;;;;;;;;;;20.48;57.72;93504.31;5069790;28;19931;-84
2021/05/22 08:35:23;;;;;;;;;;;;;;;20.35;57.62;93497.81;5070411;28;19990;-83
2021/05/22 08:37:49;;;;;;;;;;;;;;;20.22;57.08;93505.13;5069623;28;19929;-83
2021/05/22 08:40:16;;;;;;;;;;;;;;;20.09;55.99;93503.06;5069679;28;19924;-86
2021/05/22 08:42:42;;;;;;;;;;;;;;;19.92;56.48;93501.47;5069948;28;19934;-85
2021/05/22 08:45:09;;;;;;;;;;;;;;;19.70;56.31;93507.72;5069983;28;19924;-83
2021/05/22 08:47:35;;;;;;;;;;;;;;;19.57;56.01;93503.00;5069277;28;19928;-82
2021/05/22 08:50:01;;;;;;;;;;;;;;;19.68;56.91;93498.59;5071195;28;19924;-84
2021/05/22 08:52:28;;;;;;;;;;;;;;;19.67;55.94;93497.81;5070633;28;19947;-84
2021/05/22 08:54:54;;;;;;;;;;;;;;;19.55;55.75;93499.88;5069522;28;19928;-82
2021/05/22 08:57:20;;;;;;;;;;;;;;;19.39;56.74;93481.63;5066285;28;19924;-82
2021/05/22 08:59:48;;;;;;;;;;;;;;;19.20;56.58;93487.31;5067926;28;19950;-82
2021/05/22 09:02:15;;;;;;;;;;;;;;;18.92;55.44;93486.66;5068742;28;19925;-84
2021/05/22 09:04:59;;;;;;;;;;;;;;;19.03;56.56;93490.09;5069605;28;20023;-83
2021/05/22 09:07:25;;;;;;;;;;;;;;;19.08;56.44;93489.38;5070208;28;20308;-81
2021/05/22 09:09:52;;;;;;;;;;;;;;;19.34;56.84;93494.63;5069840;28;19925;-83
2021/05/22 09:12:19;;;;;;;;;;;;;;;19.54;55.59;93493.09;5069312;28;19924;-83
2021/05/22 09:14:47;;;;;;;;;;;;;;;19.83;53.98;93500.44;5069404;28;19931;-82
2021/05/22 09:17:13;;;;;;;;;;;;;;;20.05;51.27;93494.19;5069250;28;20458;-81
2021/05/22 09:19:40;;;;;;;;;;;;;;;20.34;48.66;93489.22;5069662;28;19924;-82
2021/05/22 09:22:13;;;;;;;;;;;;;;;20.73;47.83;93482.59;5069220;28;20329;-82
2021/05/22 09:27:33;;;;;;;;;;;;;;;20.92;47.36;93482.03;5108439;27;19966;-82
2021/05/22 09:30:03;;;;;;;;;;;;;;;20.68;46.35;93474.78;5107470;28;19928;-82
2021/05/22 09:32:29;;;;;;;;;;;;;;;20.51;46.85;93477.72;5102647;28;19970;-80
2021/05/22 09:34:55;;;;;;;;;;;;;;;20.53;47.12;93481.63;5105731;28;19928;-81
2021/05/22 09:37:23;;;;;;;;;;;;;;;20.61;47.73;93474.28;5107322;28;19924;-81
2021/05/22 09:39:49;;;;;;;;;;;;;;;20.81;48.22;93469.00;5107411;28;19967;-80
2021/05/22 09:42:23;;;;;;;;;;;;;;;20.88;46.21;93460.88;5107316;28;19924;-81
2021/05/22 09:44:50;;;;;;;;;;;;;;;20.91;47.57;93459.56;5107125;28;19935;-81
2021/05/22 09:47:16;;;;;;;;;;;;;;;20.99;47.85;93458.22;5107011;28;20387;-81
2021/05/22 09:49:42;;;;;;;;;;;;;;;21.10;46.73;93464.97;5107548;28;19931;-81
2021/05/22 09:52:09;;;;;;;;;;;;;;;21.12;47.23;93457.66;5107332;28;19969;-81
2021/05/22 09:54:43;;;;;;;;;;;;;;;21.13;47.55;93463.66;5107182;28;19924;-81
2021/05/22 09:57:10;;;;;;;;;;;;;;;21.04;45.57;93458.22;5107478;28;19935;-81
2021/05/22 09:59:36;;;;;;;;;;;;;;;20.67;46.45;93462.78;5107077;28;19924;-81
2021/05/22 10:02:03;;;;;;;;;;;;;;;20.62;46.48;93455.75;5106880;28;19935;-84
2021/05/22 10:04:29;;;;;;;;;;;;;;;20.81;46.41;93436.88;5106793;28;19924;-82
2021/05/22 10:06:57;;;;;;;;;;;;;;;21.23;46.87;93437.47;5107180;28;19937;-82
2021/05/22 10:09:24;;;;;;;;;;;;;;;21.60;46.55;93420.50;5106829;28;20007;-81
2021/05/22 10:12:00;;;;;;;;;;;;;;;21.78;45.61;93422.72;5107041;28;19924;-81
2021/05/22 10:14:26;;;;;;;;;;;;;;;21.97;45.52;93409.75;5111054;28;19928;-81
2021/05/22 10:16:53;;;;;;;;;;;;;;;22.16;45.00;93409.84;5111993;28;20290;-83
2021/05/22 10:19:20;;;;;;;;;;;;;;;22.36;44.44;93389.75;5109761;28;19924;-80
2021/05/22 10:21:46;;;;;;;;;;;;;;;22.53;44.16;93384.06;5106884;28;20298;-81
2021/05/22 10:24:13;;;;;;;;;;;;;;;22.75;43.65;93383.56;5106844;28;19939;-80
2021/05/22 10:26:40;;;;;;;;;;;;;;;22.78;40.89;93371.75;5106689;28;19924;-80
2021/05/22 10:29:06;;;;;;;;;;;;;;;22.85;42.18;93374.78;5106568;28;19989;-80
2021/05/22 10:31:38;;;;;;;;;;;;;;;22.91;43.23;93372.88;5106485;28;20349;-79
2021/05/22 10:34:08;;;;;;;;;;;;;;;22.88;42.44;93373.44;5106467;28;19931;-80
2021/05/22 10:36:46;;;;;;;;;;;;;;;23.04;43.11;93363.53;5106035;28;19928;-80
2021/05/22 10:39:31;;;;;;;;;;;;;;;23.06;42.98;93366.66;5092431;28;19924;-80
2021/05/22 10:44:40;;;;;;;;;;;;;;;23.56;42.03;93360.16;5092542;28;19931;-81
2021/05/22 10:47:09;;;;;;;;;;;;;;;23.86;41.76;93358.88;5092543;28;20291;-80
2021/05/22 10:49:49;;;;;;;;;;;;;;;24.14;40.52;93360.75;5092486;28;20015;-80
2021/05/22 10:52:16;;;;;;;;;;;;;;;23.92;37.37;93362.16;5092586;28;20333;-80
2021/05/22 10:54:56;;;;;;;;;;;;;;;24.04;37.87;93353.81;5092597;28;19935;-80
2021/05/22 10:57:22;;;;;;;;;;;;;;;23.96;36.83;93357.91;5092375;28;19924;-79
2021/05/22 11:00:03;;;;;;;;;;;;;;;24.01;36.85;93355.19;5092694;28;20291;-79
2021/05/22 11:02:35;;;;;;;;;;;;;;;24.09;36.39;93351.13;5092008;28;19993;-80
2021/05/22 11:05:16;;;;;;;;;;;;;;;24.30;33.82;93353.34;5092360;28;20287;-79
2021/05/22 11:07:43;;;;;;;;;;;;;;;24.24;33.78;93357.16;5091827;28;20226;-80
2021/05/22 11:10:09;;;;;;;;;;;;;;;24.24;32.39;93339.56;5092353;28;19969;-80
2021/05/22 11:12:42;;;;;;;;;;;;;;;24.23;31.63;93345.09;5091813;28;20402;-81
2021/05/22 11:15:23;;;;;;;;;;;;;;;24.11;33.91;93346.38;5092166;28;19931;-81
2021/05/22 11:17:49;;;;;;;;;;;;;;;24.37;34.97;93351.13;5082864;28;19924;-80
2021/05/22 11:20:16;;;;;;;;;;;;;;;24.35;35.12;93332.25;5091867;28;19935;-81
2021/05/22 11:22:58;;;;;;;;;;;;;;;24.41;34.85;93327.69;5091950;28;19930;-80
2021/05/22 11:25:25;;;;;;;;;;;;;;;24.28;34.95;93339.75;5091706;28;19972;-78
2021/05/22 11:27:58;;;;;;;;;;;;;;;24.17;33.26;93341.81;5091640;28;19928;-79
2021/05/22 11:30:44;;;;;;;;;;;;;;;24.38;35.09;93333.53;5091579;28;20422;-79
2021/05/22 11:33:11;;;;;;;;;;;;;;;24.28;35.97;93322.16;5091504;28;19981;-78
2021/05/22 11:35:40;;;;;;;;;;;;;;;24.03;36.13;93333.91;5091500;28;19931;-78
2021/05/22 11:38:26;;;;;;;;;;;;;;;24.01;36.12;93328.94;5091749;28;20019;-79
2021/05/22 11:40:53;;;;;;;;;;;;;;;24.14;36.65;93330.06;5091516;28;19928;-79
2021/05/22 11:43:23;;;;;;;;;;;;;;;24.15;36.37;93315.06;5091785;28;20023;-78
2021/05/22 11:45:50;;;;;;;;;;;;;;;24.06;35.85;93325.44;5091563;28;19928;-79
2021/05/22 11:48:22;;;;;;;;;;;;;;;23.81;36.34;93318.81;5091284;28;19924;-80
2021/05/22 11:50:48;;;;;;;;;;;;;;;23.74;37.11;93312.13;5090670;28;19928;-79
2021/05/22 11:53:14;;;;;;;;;;;;;;;23.84;37.33;93307.75;5091229;28;19935;-80
2021/05/22 11:55:40;;;;;;;;;;;;;;;24.02;36.29;93306.88;5091339;28;19924;-80
2021/05/22 11:58:08;;;;;;;;;;;;;;;23.99;35.70;93302.22;5091020;28;19924;-80
2021/05/22 12:00:34;;;;;;;;;;;;;;;24.06;36.20;93296.56;5090774;28;19924;-81
2021/05/22 12:03:00;;;;;;;;;;;;;;;24.17;36.03;93291.94;5091019;28;19935;-80
2021/05/22 12:05:37;;;;;;;;;;;;;;;24.25;34.82;93291.25;5091198;28;19946;-80
2021/05/22 12:08:03;;;;;;;;;;;;;;;24.33;34.19;93287.16;5090844;28;19928;-83
2021/05/22 12:10:30;;;;;;;;;;;;;;;24.24;34.92;93288.91;5090468;28;20379;-84
2021/05/22 12:13:00;;;;;;;;;;;;;;;24.49;34.85;93284.22;5091286;28;20006;-82
2021/05/22 12:15:27;;;;;;;;;;;;;;;24.62;33.63;93286.03;5091490;28;20011;-81
2021/05/22 12:17:54;;;;;;;;;;;;;;;24.76;33.47;93285.22;5091327;28;19935;-80
2021/05/22 12:20:20;;;;;;;;;;;;;;;24.91;33.05;93290.13;5091150;28;20426;-82
2021/05/22 12:22:46;;;;;;;;;;;;;;;25.09;31.33;93275.28;5090988;28;19935;-82
2021/05/22 12:25:13;;;;;;;;;;;;;;;25.20;32.73;93265.31;5090785;28;19935;-83
2021/05/22 12:27:39;;;;;;;;;;;;;;;25.11;33.99;93272.34;5091246;28;19931;-81
2021/05/22 12:30:06;;;;;;;;;;;;;;;25.05;33.97;93269.06;5091057;28;19931;-82
2021/05/22 12:32:33;;;;;;;;;;;;;;;25.24;34.42;93268.09;5090639;28;19928;-82
2021/05/22 12:35:01;;;;;;;;;;;;;;;25.26;35.37;93265.94;5090877;28;19924;-83
2021/05/22 12:37:27;;;;;;;;;;;;;;;25.06;33.76;93254.88;5091181;28;19958;-82
2021/05/22 12:39:57;;;;;;;;;;;;;;;24.63;34.02;93266.56;5090641;28;19931;-82
2021/05/22 12:42:23;;;;;;;;;;;;;;;24.46;34.69;93256.69;5090981;28;20014;-82
2021/05/22 12:44:50;;;;;;;;;;;;;;;24.43;35.71;93254.66;5091022;28;19924;-82
2021/05/22 12:47:17;;;;;;;;;;;;;;;24.70;35.19;93247.78;5090952;28;19924;-82
2021/05/22 12:49:54;;;;;;;;;;;;;;;24.90;34.59;93241.28;5090839;28;20323;-83
2021/05/22 12:52:20;;;;;;;;;;;;;;;25.01;35.38;93235.81;5090664;28;19977;-82
2021/05/22 12:54:46;;;;;;;;;;;;;;;24.94;32.50;93241.47;5090839;28;19932;-83